sensor_id;sensor_type;location;lat;lon;timestamp;temperature;humidity
35240;DHT22;21376;50.954;4.716;2023-05-23T00:01:46;14.80;99.90
35240;DHT22;21376;50.954;4.716;2023-05-23T00:04:12;14.60;99.90
35240;DHT22;21376;50.954;4.716;2023-05-23T00:06:46;14.50;99.90
35240;DHT22;21376;50.954;4.716;2023-05-23T00:09:21;14.50;99.90
35240;DHT22;21376;50.954;4.716;2023-05-23T00:11:48;14.30;99.90
35240;DHT22;21376;50.954;4.716;2023-05-23T00:14:17;14.30;99.90
35240;DHT22;21376;50.954;4.716;2023-05-23T00:19:14;14.40;99.90
35240;DHT22;21376;50.954;4.716;2023-05-23T00:21:42;14.40;99.90
35240;DHT22;21376;50.954;4.716;2023-05-23T00:24:09;14.50;99.90
35240;DHT22;21376;50.954;4.716;2023-05-23T00:26:41;14.60;99.90
35240;DHT22;21376;50.954;4.716;2023-05-23T00:31:42;14.80;99.90
35240;DHT22;21376;50.954;4.716;2023-05-23T00:34:14;14.80;99.90
35240;DHT22;21376;50.954;4.716;2023-05-23T00:39:17;15.00;99.90
35240;DHT22;21376;50.954;4.716;2023-05-23T00:42:02;15.00;99.90
35240;DHT22;21376;50.954;4.716;2023-05-23T00:47:00;14.70;99.90
35240;DHT22;21376;50.954;4.716;2023-05-23T00:49:31;14.70;99.90
35240;DHT22;21376;50.954;4.716;2023-05-23T00:52:00;14.90;99.90
35240;DHT22;21376;50.954;4.716;2023-05-23T00:56:57;15.00;99.90
35240;DHT22;21376;50.954;4.716;2023-05-23T00:59:24;14.90;99.90
35240;DHT22;21376;50.954;4.716;2023-05-23T01:01:51;14.90;99.90
35240;DHT22;21376;50.954;4.716;2023-05-23T01:04:21;14.90;99.90
35240;DHT22;21376;50.954;4.716;2023-05-23T01:06:56;14.90;99.90
35240;DHT22;21376;50.954;4.716;2023-05-23T01:09:22;15.00;99.90
35240;DHT22;21376;50.954;4.716;2023-05-23T01:11:54;15.00;99.90
35240;DHT22;21376;50.954;4.716;2023-05-23T01:14:27;15.00;99.90
35240;DHT22;21376;50.954;4.716;2023-05-23T01:17:10;15.00;99.90
35240;DHT22;21376;50.954;4.716;2023-05-23T01:30:39;15.10;99.90
35240;DHT22;21376;50.954;4.716;2023-05-23T01:33:09;15.20;99.90
35240;DHT22;21376;50.954;4.716;2023-05-23T01:35:39;15.30;99.90
35240;DHT22;21376;50.954;4.716;2023-05-23T01:45:55;15.30;99.90
35240;DHT22;21376;50.954;4.716;2023-05-23T01:48:25;15.20;99.90
35240;DHT22;21376;50.954;4.716;2023-05-23T01:50:52;15.10;99.90
35240;DHT22;21376;50.954;4.716;2023-05-23T01:58:20;15.20;99.90
35240;DHT22;21376;50.954;4.716;2023-05-23T02:00:55;15.20;99.90
35240;DHT22;21376;50.954;4.716;2023-05-23T02:06:00;15.20;99.90
35240;DHT22;21376;50.954;4.716;2023-05-23T02:08:26;15.20;99.90
35240;DHT22;21376;50.954;4.716;2023-05-23T02:10:55;15.10;99.90
35240;DHT22;21376;50.954;4.716;2023-05-23T02:13:21;15.10;99.90
35240;DHT22;21376;50.954;4.716;2023-05-23T02:15:49;15.00;99.90
35240;DHT22;21376;50.954;4.716;2023-05-23T02:18:15;14.90;99.90
35240;DHT22;21376;50.954;4.716;2023-05-23T02:20:43;15.00;99.90
35240;DHT22;21376;50.954;4.716;2023-05-23T02:23:12;15.00;99.90
35240;DHT22;21376;50.954;4.716;2023-05-23T02:25:41;15.10;99.90
35240;DHT22;21376;50.954;4.716;2023-05-23T02:28:09;15.10;99.90
35240;DHT22;21376;50.954;4.716;2023-05-23T02:30:40;15.10;99.90
35240;DHT22;21376;50.954;4.716;2023-05-23T02:35:37;15.10;99.90
35240;DHT22;21376;50.954;4.716;2023-05-23T02:38:03;15.10;99.90
35240;DHT22;21376;50.954;4.716;2023-05-23T02:40:30;15.00;99.90
35240;DHT22;21376;50.954;4.716;2023-05-23T02:43:00;15.00;99.90
35240;DHT22;21376;50.954;4.716;2023-05-23T02:45:29;15.00;99.90
35240;DHT22;21376;50.954;4.716;2023-05-23T02:47:56;15.10;99.90
35240;DHT22;21376;50.954;4.716;2023-05-23T02:50:22;15.00;99.90
35240;DHT22;21376;50.954;4.716;2023-05-23T02:53:00;15.00;99.90
35240;DHT22;21376;50.954;4.716;2023-05-23T02:55:26;15.00;99.90
35240;DHT22;21376;50.954;4.716;2023-05-23T03:00:24;14.90;99.90
35240;DHT22;21376;50.954;4.716;2023-05-23T03:07:40;15.00;99.90
35240;DHT22;21376;50.954;4.716;2023-05-23T03:10:06;15.10;99.90
35240;DHT22;21376;50.954;4.716;2023-05-23T03:12:32;14.90;99.90
35240;DHT22;21376;50.954;4.716;2023-05-23T03:17:33;14.90;99.90
35240;DHT22;21376;50.954;4.716;2023-05-23T03:19:59;14.80;99.90
35240;DHT22;21376;50.954;4.716;2023-05-23T03:22:24;14.90;99.90
35240;DHT22;21376;50.954;4.716;2023-05-23T03:24:50;14.90;99.90
35240;DHT22;21376;50.954;4.716;2023-05-23T03:27:16;14.90;99.90
35240;DHT22;21376;50.954;4.716;2023-05-23T03:29:41;15.00;99.90
35240;DHT22;21376;50.954;4.716;2023-05-23T03:32:12;14.80;99.90
35240;DHT22;21376;50.954;4.716;2023-05-23T03:34:38;14.80;99.90
35240;DHT22;21376;50.954;4.716;2023-05-23T03:37:03;14.80;99.90
35240;DHT22;21376;50.954;4.716;2023-05-23T03:39:30;14.60;99.90
35240;DHT22;21376;50.954;4.716;2023-05-23T03:41:56;14.60;99.90
35240;DHT22;21376;50.954;4.716;2023-05-23T03:44:24;14.70;99.90
35240;DHT22;21376;50.954;4.716;2023-05-23T03:46:51;14.60;99.90
35240;DHT22;21376;50.954;4.716;2023-05-23T03:49:16;14.60;99.90
35240;DHT22;21376;50.954;4.716;2023-05-23T03:51:44;14.50;99.90
35240;DHT22;21376;50.954;4.716;2023-05-23T03:54:10;14.50;99.90
35240;DHT22;21376;50.954;4.716;2023-05-23T03:56:35;14.50;99.90
35240;DHT22;21376;50.954;4.716;2023-05-23T03:59:01;14.60;99.90
35240;DHT22;21376;50.954;4.716;2023-05-23T04:01:27;14.80;99.90
35240;DHT22;21376;50.954;4.716;2023-05-23T04:04:04;14.60;99.90
35240;DHT22;21376;50.954;4.716;2023-05-23T04:06:33;14.80;99.90
35240;DHT22;21376;50.954;4.716;2023-05-23T04:08:59;14.70;99.90
35240;DHT22;21376;50.954;4.716;2023-05-23T04:11:26;14.50;99.90
35240;DHT22;21376;50.954;4.716;2023-05-23T04:13:59;14.30;99.90
35240;DHT22;21376;50.954;4.716;2023-05-23T04:19:01;14.40;99.90
35240;DHT22;21376;50.954;4.716;2023-05-23T04:21:28;14.50;99.90
35240;DHT22;21376;50.954;4.716;2023-05-23T04:23:56;14.50;99.90
35240;DHT22;21376;50.954;4.716;2023-05-23T04:26:22;14.60;99.90
35240;DHT22;21376;50.954;4.716;2023-05-23T04:28:47;14.70;99.90
35240;DHT22;21376;50.954;4.716;2023-05-23T04:31:15;14.70;99.90
35240;DHT22;21376;50.954;4.716;2023-05-23T04:33:41;14.90;99.90
35240;DHT22;21376;50.954;4.716;2023-05-23T04:36:07;14.80;99.90
35240;DHT22;21376;50.954;4.716;2023-05-23T04:38:34;15.00;99.90
35240;DHT22;21376;50.954;4.716;2023-05-23T04:40:59;15.00;99.90
35240;DHT22;21376;50.954;4.716;2023-05-23T04:43:25;15.00;99.90
35240;DHT22;21376;50.954;4.716;2023-05-23T04:45:53;15.00;99.90
35240;DHT22;21376;50.954;4.716;2023-05-23T04:48:19;15.20;99.90
35240;DHT22;21376;50.954;4.716;2023-05-23T04:50:46;15.20;99.90
35240;DHT22;21376;50.954;4.716;2023-05-23T04:53:13;15.10;99.90
35240;DHT22;21376;50.954;4.716;2023-05-23T04:55:38;15.20;99.90
35240;DHT22;21376;50.954;4.716;2023-05-23T04:58:05;15.20;99.90
35240;DHT22;21376;50.954;4.716;2023-05-23T05:00:35;15.20;99.90
35240;DHT22;21376;50.954;4.716;2023-05-23T05:03:03;15.20;99.90
35240;DHT22;21376;50.954;4.716;2023-05-23T05:05:28;15.20;99.90
35240;DHT22;21376;50.954;4.716;2023-05-23T05:07:54;15.30;99.90
35240;DHT22;21376;50.954;4.716;2023-05-23T05:10:20;15.30;99.90
35240;DHT22;21376;50.954;4.716;2023-05-23T05:12:46;15.40;99.90
35240;DHT22;21376;50.954;4.716;2023-05-23T05:15:14;15.40;99.90
35240;DHT22;21376;50.954;4.716;2023-05-23T05:17:42;15.40;99.90
35240;DHT22;21376;50.954;4.716;2023-05-23T05:20:09;15.30;99.90
35240;DHT22;21376;50.954;4.716;2023-05-23T05:22:35;15.20;99.90
35240;DHT22;21376;50.954;4.716;2023-05-23T05:25:02;15.30;99.90
35240;DHT22;21376;50.954;4.716;2023-05-23T05:27:28;15.50;99.90
35240;DHT22;21376;50.954;4.716;2023-05-23T05:29:55;15.50;99.90
35240;DHT22;21376;50.954;4.716;2023-05-23T05:32:23;15.40;99.90
35240;DHT22;21376;50.954;4.716;2023-05-23T05:34:48;15.30;99.90
35240;DHT22;21376;50.954;4.716;2023-05-23T05:37:16;15.20;99.90
35240;DHT22;21376;50.954;4.716;2023-05-23T05:39:42;15.60;99.90
35240;DHT22;21376;50.954;4.716;2023-05-23T05:42:10;15.70;99.90
35240;DHT22;21376;50.954;4.716;2023-05-23T05:44:37;15.50;99.90
35240;DHT22;21376;50.954;4.716;2023-05-23T05:47:03;15.50;99.90
35240;DHT22;21376;50.954;4.716;2023-05-23T05:49:29;15.50;99.90
35240;DHT22;21376;50.954;4.716;2023-05-23T05:51:58;15.40;99.90
35240;DHT22;21376;50.954;4.716;2023-05-23T05:57:17;15.40;99.90
35240;DHT22;21376;50.954;4.716;2023-05-23T05:59:44;15.40;99.90
35240;DHT22;21376;50.954;4.716;2023-05-23T06:02:13;15.30;99.90
35240;DHT22;21376;50.954;4.716;2023-05-23T06:04:41;15.40;99.90
35240;DHT22;21376;50.954;4.716;2023-05-23T06:07:07;15.30;99.90
35240;DHT22;21376;50.954;4.716;2023-05-23T06:09:34;15.30;99.90
35240;DHT22;21376;50.954;4.716;2023-05-23T06:12:00;15.30;99.90
35240;DHT22;21376;50.954;4.716;2023-05-23T06:14:27;15.20;99.90
35240;DHT22;21376;50.954;4.716;2023-05-23T06:16:54;15.20;99.90
35240;DHT22;21376;50.954;4.716;2023-05-23T06:19:20;15.10;99.90
35240;DHT22;21376;50.954;4.716;2023-05-23T06:21:49;14.90;99.90
35240;DHT22;21376;50.954;4.716;2023-05-23T06:24:15;15.00;99.90
35240;DHT22;21376;50.954;4.716;2023-05-23T06:26:42;15.00;99.90
35240;DHT22;21376;50.954;4.716;2023-05-23T06:29:08;15.10;99.90
35240;DHT22;21376;50.954;4.716;2023-05-23T06:31:36;15.20;99.90
35240;DHT22;21376;50.954;4.716;2023-05-23T06:34:09;15.40;99.90
35240;DHT22;21376;50.954;4.716;2023-05-23T06:36:36;15.50;99.90
35240;DHT22;21376;50.954;4.716;2023-05-23T06:39:02;15.60;99.90
35240;DHT22;21376;50.954;4.716;2023-05-23T06:41:27;15.40;99.90
35240;DHT22;21376;50.954;4.716;2023-05-23T06:46:23;15.20;99.90
35240;DHT22;21376;50.954;4.716;2023-05-23T06:48:49;15.40;99.90
35240;DHT22;21376;50.954;4.716;2023-05-23T06:58:43;16.20;99.90
35240;DHT22;21376;50.954;4.716;2023-05-23T07:01:10;16.70;99.90
35240;DHT22;21376;50.954;4.716;2023-05-23T07:03:38;16.90;99.90
35240;DHT22;21376;50.954;4.716;2023-05-23T07:06:08;17.00;99.90
35240;DHT22;21376;50.954;4.716;2023-05-23T07:08:33;17.00;99.90
35240;DHT22;21376;50.954;4.716;2023-05-23T07:13:31;17.10;99.90
35240;DHT22;21376;50.954;4.716;2023-05-23T07:19:12;18.10;99.90
35240;DHT22;21376;50.954;4.716;2023-05-23T07:26:44;18.70;99.90
35240;DHT22;21376;50.954;4.716;2023-05-23T07:29:10;18.60;99.90
35240;DHT22;21376;50.954;4.716;2023-05-23T07:31:38;18.20;99.90
35240;DHT22;21376;50.954;4.716;2023-05-23T07:34:04;17.90;99.90
35240;DHT22;21376;50.954;4.716;2023-05-23T07:41:59;17.50;99.90
35240;DHT22;21376;50.954;4.716;2023-05-23T07:44:28;17.30;99.90
35240;DHT22;21376;50.954;4.716;2023-05-23T07:49:27;17.10;99.90
35240;DHT22;21376;50.954;4.716;2023-05-23T07:51:56;17.00;99.90
35240;DHT22;21376;50.954;4.716;2023-05-23T07:54:25;17.10;99.90
35240;DHT22;21376;50.954;4.716;2023-05-23T07:56:52;17.00;99.90
35240;DHT22;21376;50.954;4.716;2023-05-23T07:59:19;16.80;99.90
35240;DHT22;21376;50.954;4.716;2023-05-23T08:01:47;16.80;99.90
35240;DHT22;21376;50.954;4.716;2023-05-23T08:06:48;17.20;99.90
35240;DHT22;21376;50.954;4.716;2023-05-23T08:11:44;18.20;99.90
35240;DHT22;21376;50.954;4.716;2023-05-23T08:14:12;18.50;99.90
35240;DHT22;21376;50.954;4.716;2023-05-23T08:16:41;18.20;99.90
35240;DHT22;21376;50.954;4.716;2023-05-23T08:19:10;18.30;99.90
35240;DHT22;21376;50.954;4.716;2023-05-23T08:21:45;18.30;99.90
35240;DHT22;21376;50.954;4.716;2023-05-23T08:29:13;20.00;99.90
35240;DHT22;21376;50.954;4.716;2023-05-23T08:31:42;20.40;99.90
35240;DHT22;21376;50.954;4.716;2023-05-23T08:34:09;20.30;99.90
35240;DHT22;21376;50.954;4.716;2023-05-23T08:36:35;20.30;99.90
35240;DHT22;21376;50.954;4.716;2023-05-23T08:39:04;20.40;99.90
35240;DHT22;21376;50.954;4.716;2023-05-23T08:41:31;20.00;99.90
35240;DHT22;21376;50.954;4.716;2023-05-23T08:44:09;19.50;99.90
35240;DHT22;21376;50.954;4.716;2023-05-23T08:46:45;19.80;99.90
35240;DHT22;21376;50.954;4.716;2023-05-23T08:49:10;19.40;99.90
35240;DHT22;21376;50.954;4.716;2023-05-23T08:51:41;19.00;99.90
35240;DHT22;21376;50.954;4.716;2023-05-23T08:56:41;19.30;99.90
35240;DHT22;21376;50.954;4.716;2023-05-23T08:59:09;19.30;99.90
35240;DHT22;21376;50.954;4.716;2023-05-23T09:04:09;19.90;99.90
35240;DHT22;21376;50.954;4.716;2023-05-23T09:06:39;20.10;99.90
35240;DHT22;21376;50.954;4.716;2023-05-23T09:09:08;20.10;99.90
35240;DHT22;21376;50.954;4.716;2023-05-23T09:11:33;20.20;99.90
35240;DHT22;21376;50.954;4.716;2023-05-23T09:14:05;19.60;99.90
35240;DHT22;21376;50.954;4.716;2023-05-23T09:16:32;19.50;99.90
35240;DHT22;21376;50.954;4.716;2023-05-23T09:19:11;19.40;99.90
35240;DHT22;21376;50.954;4.716;2023-05-23T09:21:41;19.80;99.90
35240;DHT22;21376;50.954;4.716;2023-05-23T09:24:07;19.80;99.90
35240;DHT22;21376;50.954;4.716;2023-05-23T09:26:33;19.60;99.90
35240;DHT22;21376;50.954;4.716;2023-05-23T09:28:59;19.20;99.90
35240;DHT22;21376;50.954;4.716;2023-05-23T09:31:29;19.40;99.90
35240;DHT22;21376;50.954;4.716;2023-05-23T09:33:56;19.30;99.90
35240;DHT22;21376;50.954;4.716;2023-05-23T09:36:22;19.20;99.90
35240;DHT22;21376;50.954;4.716;2023-05-23T09:38:48;19.40;99.90
35240;DHT22;21376;50.954;4.716;2023-05-23T09:41:14;19.40;99.90
35240;DHT22;21376;50.954;4.716;2023-05-23T09:43:49;19.50;99.90
35240;DHT22;21376;50.954;4.716;2023-05-23T09:46:16;19.50;99.90
35240;DHT22;21376;50.954;4.716;2023-05-23T09:48:46;19.30;99.90
35240;DHT22;21376;50.954;4.716;2023-05-23T09:51:12;18.90;99.90
35240;DHT22;21376;50.954;4.716;2023-05-23T09:53:38;19.00;99.90
35240;DHT22;21376;50.954;4.716;2023-05-23T09:56:04;18.80;99.90
35240;DHT22;21376;50.954;4.716;2023-05-23T09:58:34;18.60;99.90
35240;DHT22;21376;50.954;4.716;2023-05-23T10:01:00;18.60;99.90
35240;DHT22;21376;50.954;4.716;2023-05-23T10:03:34;18.70;99.90
35240;DHT22;21376;50.954;4.716;2023-05-23T10:09:01;18.70;99.90
35240;DHT22;21376;50.954;4.716;2023-05-23T10:11:50;18.60;99.90
35240;DHT22;21376;50.954;4.716;2023-05-23T10:14:22;18.60;99.90
35240;DHT22;21376;50.954;4.716;2023-05-23T10:17:07;19.00;99.90
35240;DHT22;21376;50.954;4.716;2023-05-23T10:22:03;19.50;99.90
35240;DHT22;21376;50.954;4.716;2023-05-23T10:24:30;19.60;99.90
35240;DHT22;21376;50.954;4.716;2023-05-23T10:26:57;19.40;99.90
35240;DHT22;21376;50.954;4.716;2023-05-23T10:29:23;19.30;99.90
35240;DHT22;21376;50.954;4.716;2023-05-23T10:31:50;19.70;99.90
35240;DHT22;21376;50.954;4.716;2023-05-23T10:37:05;20.40;99.90
35240;DHT22;21376;50.954;4.716;2023-05-23T10:42:16;23.20;99.90
35240;DHT22;21376;50.954;4.716;2023-05-23T10:50:28;22.80;99.90
35240;DHT22;21376;50.954;4.716;2023-05-23T10:53:12;24.70;99.90
35240;DHT22;21376;50.954;4.716;2023-05-23T10:55:41;26.10;99.90
35240;DHT22;21376;50.954;4.716;2023-05-23T10:58:23;26.70;99.90
35240;DHT22;21376;50.954;4.716;2023-05-23T11:00:53;27.30;99.90
35240;DHT22;21376;50.954;4.716;2023-05-23T11:09:06;26.00;99.90
35240;DHT22;21376;50.954;4.716;2023-05-23T11:11:53;26.70;99.10
35240;DHT22;21376;50.954;4.716;2023-05-23T11:14:34;27.40;99.00
35240;DHT22;21376;50.954;4.716;2023-05-23T11:26:57;25.50;99.90
35240;DHT22;21376;50.954;4.716;2023-05-23T11:29:29;27.00;98.40
35240;DHT22;21376;50.954;4.716;2023-05-23T11:31:55;28.00;92.80
35240;DHT22;21376;50.954;4.716;2023-05-23T11:34:26;27.40;92.10
35240;DHT22;21376;50.954;4.716;2023-05-23T11:36:54;26.40;91.70
35240;DHT22;21376;50.954;4.716;2023-05-23T11:39:20;25.80;92.00
35240;DHT22;21376;50.954;4.716;2023-05-23T11:42:07;25.80;94.20
35240;DHT22;21376;50.954;4.716;2023-05-23T11:44:33;26.70;92.80
35240;DHT22;21376;50.954;4.716;2023-05-23T11:47:03;27.40;92.70
35240;DHT22;21376;50.954;4.716;2023-05-23T11:49:35;27.40;93.60
35240;DHT22;21376;50.954;4.716;2023-05-23T11:52:04;28.20;91.30
35240;DHT22;21376;50.954;4.716;2023-05-23T11:54:36;28.70;89.80
35240;DHT22;21376;50.954;4.716;2023-05-23T11:57:01;28.50;83.60
35240;DHT22;21376;50.954;4.716;2023-05-23T11:59:29;28.40;88.00
35240;DHT22;21376;50.954;4.716;2023-05-23T12:01:55;29.00;89.00
35240;DHT22;21376;50.954;4.716;2023-05-23T12:04:21;27.70;90.00
35240;DHT22;21376;50.954;4.716;2023-05-23T12:06:47;27.30;89.30
35240;DHT22;21376;50.954;4.716;2023-05-23T12:09:14;27.70;91.30
35240;DHT22;21376;50.954;4.716;2023-05-23T12:11:40;28.10;89.80
35240;DHT22;21376;50.954;4.716;2023-05-23T12:14:06;27.90;86.20
35240;DHT22;21376;50.954;4.716;2023-05-23T12:16:34;27.10;89.10
35240;DHT22;21376;50.954;4.716;2023-05-23T12:19:05;26.80;87.70
35240;DHT22;21376;50.954;4.716;2023-05-23T12:21:45;26.90;88.10
35240;DHT22;21376;50.954;4.716;2023-05-23T12:24:12;27.80;85.50
35240;DHT22;21376;50.954;4.716;2023-05-23T12:26:45;28.80;84.70
35240;DHT22;21376;50.954;4.716;2023-05-23T12:29:11;28.80;82.80
35240;DHT22;21376;50.954;4.716;2023-05-23T12:31:36;28.80;82.90
35240;DHT22;21376;50.954;4.716;2023-05-23T12:34:03;27.70;81.60
35240;DHT22;21376;50.954;4.716;2023-05-23T12:36:29;26.60;85.50
35240;DHT22;21376;50.954;4.716;2023-05-23T12:39:04;25.40;86.20
35240;DHT22;21376;50.954;4.716;2023-05-23T12:41:31;24.70;86.70
35240;DHT22;21376;50.954;4.716;2023-05-23T12:43:58;25.40;89.50
35240;DHT22;21376;50.954;4.716;2023-05-23T12:46:27;26.80;84.30
35240;DHT22;21376;50.954;4.716;2023-05-23T12:48:53;26.40;85.60
35240;DHT22;21376;50.954;4.716;2023-05-23T12:51:21;25.30;88.60
35240;DHT22;21376;50.954;4.716;2023-05-23T12:53:47;26.00;90.50
35240;DHT22;21376;50.954;4.716;2023-05-23T12:56:12;27.40;87.40
35240;DHT22;21376;50.954;4.716;2023-05-23T12:58:38;28.10;80.70
35240;DHT22;21376;50.954;4.716;2023-05-23T13:01:04;27.90;79.70
35240;DHT22;21376;50.954;4.716;2023-05-23T13:03:29;27.80;81.30
35240;DHT22;21376;50.954;4.716;2023-05-23T13:05:56;27.90;80.60
35240;DHT22;21376;50.954;4.716;2023-05-23T13:08:22;28.50;83.80
35240;DHT22;21376;50.954;4.716;2023-05-23T13:10:47;27.80;82.00
35240;DHT22;21376;50.954;4.716;2023-05-23T13:13:13;28.00;80.20
35240;DHT22;21376;50.954;4.716;2023-05-23T13:15:39;27.10;82.10
35240;DHT22;21376;50.954;4.716;2023-05-23T13:18:05;25.90;86.50
35240;DHT22;21376;50.954;4.716;2023-05-23T13:20:32;25.60;82.20
35240;DHT22;21376;50.954;4.716;2023-05-23T13:22:58;24.90;86.50
35240;DHT22;21376;50.954;4.716;2023-05-23T13:25:25;24.90;84.70
35240;DHT22;21376;50.954;4.716;2023-05-23T13:27:51;24.30;83.70
35240;DHT22;21376;50.954;4.716;2023-05-23T13:30:18;23.90;90.40
35240;DHT22;21376;50.954;4.716;2023-05-23T13:32:44;23.50;85.90
35240;DHT22;21376;50.954;4.716;2023-05-23T13:35:09;22.50;90.90
35240;DHT22;21376;50.954;4.716;2023-05-23T13:37:35;21.90;92.00
35240;DHT22;21376;50.954;4.716;2023-05-23T13:40:02;21.50;93.20
35240;DHT22;21376;50.954;4.716;2023-05-23T13:42:28;21.60;92.30
35240;DHT22;21376;50.954;4.716;2023-05-23T13:44:53;21.90;91.70
35240;DHT22;21376;50.954;4.716;2023-05-23T13:47:19;22.00;94.90
35240;DHT22;21376;50.954;4.716;2023-05-23T13:49:45;22.50;93.20
35240;DHT22;21376;50.954;4.716;2023-05-23T13:52:11;22.70;92.10
35240;DHT22;21376;50.954;4.716;2023-05-23T13:54:38;22.00;91.80
35240;DHT22;21376;50.954;4.716;2023-05-23T13:57:05;22.00;92.60
35240;DHT22;21376;50.954;4.716;2023-05-23T14:01:59;21.40;91.80
35240;DHT22;21376;50.954;4.716;2023-05-23T14:04:25;21.30;92.70
35240;DHT22;21376;50.954;4.716;2023-05-23T14:17:19;21.60;92.80
35240;DHT22;21376;50.954;4.716;2023-05-23T14:19:44;21.90;92.90
35240;DHT22;21376;50.954;4.716;2023-05-23T14:22:18;21.80;93.70
35240;DHT22;21376;50.954;4.716;2023-05-23T14:24:44;21.90;92.50
35240;DHT22;21376;50.954;4.716;2023-05-23T16:59:55;18.30;97.00
35240;DHT22;21376;50.954;4.716;2023-05-23T17:02:22;18.30;96.80
35240;DHT22;21376;50.954;4.716;2023-05-23T17:04:48;18.10;97.00
35240;DHT22;21376;50.954;4.716;2023-05-23T17:07:15;17.90;97.90
35240;DHT22;21376;50.954;4.716;2023-05-23T17:09:43;17.70;98.20
35240;DHT22;21376;50.954;4.716;2023-05-23T17:12:09;17.50;97.30
35240;DHT22;21376;50.954;4.716;2023-05-23T17:14:36;17.50;98.20
35240;DHT22;21376;50.954;4.716;2023-05-23T17:17:02;17.50;98.20
35240;DHT22;21376;50.954;4.716;2023-05-23T17:19:29;17.50;97.20
35240;DHT22;21376;50.954;4.716;2023-05-23T17:21:55;17.40;97.40
35240;DHT22;21376;50.954;4.716;2023-05-23T17:24:26;17.40;98.50
35240;DHT22;21376;50.954;4.716;2023-05-23T17:26:55;17.40;98.40
35240;DHT22;21376;50.954;4.716;2023-05-23T17:29:21;17.30;98.80
35240;DHT22;21376;50.954;4.716;2023-05-23T17:31:47;17.20;98.90
35240;DHT22;21376;50.954;4.716;2023-05-23T17:34:14;17.10;99.00
35240;DHT22;21376;50.954;4.716;2023-05-23T17:36:42;16.80;99.00
35240;DHT22;21376;50.954;4.716;2023-05-23T17:39:08;16.90;99.10
35240;DHT22;21376;50.954;4.716;2023-05-23T17:41:36;16.80;99.40
35240;DHT22;21376;50.954;4.716;2023-05-23T17:44:02;16.90;99.90
35240;DHT22;21376;50.954;4.716;2023-05-23T17:46:31;16.80;99.50
35240;DHT22;21376;50.954;4.716;2023-05-23T17:49:03;16.90;99.90
35240;DHT22;21376;50.954;4.716;2023-05-23T17:51:32;17.00;99.90
35240;DHT22;21376;50.954;4.716;2023-05-23T17:54:01;17.00;99.90
35240;DHT22;21376;50.954;4.716;2023-05-23T17:59:12;17.20;99.90
35240;DHT22;21376;50.954;4.716;2023-05-23T18:04:11;16.60;99.90
35240;DHT22;21376;50.954;4.716;2023-05-23T18:06:43;16.50;99.90
35240;DHT22;21376;50.954;4.716;2023-05-23T18:09:12;16.50;99.90
35240;DHT22;21376;50.954;4.716;2023-05-23T18:11:40;16.80;99.90
35240;DHT22;21376;50.954;4.716;2023-05-23T18:19:03;17.10;99.90
35240;DHT22;21376;50.954;4.716;2023-05-23T18:21:30;17.20;99.90
35240;DHT22;21376;50.954;4.716;2023-05-23T18:24:01;17.00;99.90
35240;DHT22;21376;50.954;4.716;2023-05-23T18:26:28;16.70;99.90
35240;DHT22;21376;50.954;4.716;2023-05-23T18:28:55;16.70;99.90
35240;DHT22;21376;50.954;4.716;2023-05-23T18:33:50;16.70;99.90
35240;DHT22;21376;50.954;4.716;2023-05-23T18:36:19;16.30;99.90
35240;DHT22;21376;50.954;4.716;2023-05-23T18:38:54;16.00;99.90
35240;DHT22;21376;50.954;4.716;2023-05-23T18:41:19;15.90;99.90
35240;DHT22;21376;50.954;4.716;2023-05-23T18:46:28;15.50;99.90
35240;DHT22;21376;50.954;4.716;2023-05-23T18:48:59;15.30;99.90
35240;DHT22;21376;50.954;4.716;2023-05-23T18:53:57;15.00;99.90
35240;DHT22;21376;50.954;4.716;2023-05-23T18:56:32;14.90;99.90
35240;DHT22;21376;50.954;4.716;2023-05-23T18:58:58;14.80;99.90
35240;DHT22;21376;50.954;4.716;2023-05-23T19:06:27;14.50;99.90
35240;DHT22;21376;50.954;4.716;2023-05-23T19:11:40;14.40;99.90
35240;DHT22;21376;50.954;4.716;2023-05-23T19:14:06;14.40;99.90
35240;DHT22;21376;50.954;4.716;2023-05-23T19:19:23;14.20;99.90
35240;DHT22;21376;50.954;4.716;2023-05-23T19:24:20;14.00;99.90
35240;DHT22;21376;50.954;4.716;2023-05-23T19:29:21;13.90;99.90
35240;DHT22;21376;50.954;4.716;2023-05-23T19:34:20;13.80;99.90
35240;DHT22;21376;50.954;4.716;2023-05-23T19:36:45;13.80;99.90
35240;DHT22;21376;50.954;4.716;2023-05-23T19:39:13;14.00;99.90
35240;DHT22;21376;50.954;4.716;2023-05-23T19:41:39;14.00;99.90
35240;DHT22;21376;50.954;4.716;2023-05-23T19:44:05;14.00;99.90
35240;DHT22;21376;50.954;4.716;2023-05-23T19:46:31;13.90;99.90
35240;DHT22;21376;50.954;4.716;2023-05-23T19:48:57;14.00;99.90
35240;DHT22;21376;50.954;4.716;2023-05-23T19:51:23;14.00;99.90
35240;DHT22;21376;50.954;4.716;2023-05-23T19:53:50;13.90;99.90
35240;DHT22;21376;50.954;4.716;2023-05-23T19:56:15;13.80;99.90
35240;DHT22;21376;50.954;4.716;2023-05-23T19:58:42;13.80;99.90
35240;DHT22;21376;50.954;4.716;2023-05-23T20:01:08;13.70;99.90
35240;DHT22;21376;50.954;4.716;2023-05-23T20:03:34;13.70;99.90
35240;DHT22;21376;50.954;4.716;2023-05-23T20:06:00;13.60;99.90
35240;DHT22;21376;50.954;4.716;2023-05-23T20:08:25;13.40;99.90
35240;DHT22;21376;50.954;4.716;2023-05-23T20:10:51;13.30;99.90
35240;DHT22;21376;50.954;4.716;2023-05-23T20:13:18;13.10;99.90
35240;DHT22;21376;50.954;4.716;2023-05-23T20:15:44;13.10;99.90
35240;DHT22;21376;50.954;4.716;2023-05-23T20:18:09;13.00;99.90
35240;DHT22;21376;50.954;4.716;2023-05-23T20:20:35;12.80;99.90
35240;DHT22;21376;50.954;4.716;2023-05-23T20:23:02;12.90;99.90
35240;DHT22;21376;50.954;4.716;2023-05-23T20:25:28;12.90;99.90
35240;DHT22;21376;50.954;4.716;2023-05-23T20:27:55;12.80;99.90
35240;DHT22;21376;50.954;4.716;2023-05-23T20:30:21;12.70;99.90
35240;DHT22;21376;50.954;4.716;2023-05-23T20:32:48;12.50;99.90
35240;DHT22;21376;50.954;4.716;2023-05-23T20:35:18;12.50;99.90
35240;DHT22;21376;50.954;4.716;2023-05-23T20:37:43;12.40;99.90
35240;DHT22;21376;50.954;4.716;2023-05-23T20:40:09;12.30;99.90
35240;DHT22;21376;50.954;4.716;2023-05-23T20:42:35;12.30;99.90
35240;DHT22;21376;50.954;4.716;2023-05-23T20:45:04;12.20;99.90
35240;DHT22;21376;50.954;4.716;2023-05-23T20:47:32;12.10;99.90
35240;DHT22;21376;50.954;4.716;2023-05-23T20:50:01;12.20;99.90
35240;DHT22;21376;50.954;4.716;2023-05-23T20:52:26;12.10;99.90
35240;DHT22;21376;50.954;4.716;2023-05-23T20:54:52;12.10;99.90
35240;DHT22;21376;50.954;4.716;2023-05-23T20:57:18;12.00;99.90
35240;DHT22;21376;50.954;4.716;2023-05-23T20:59:44;11.80;99.90
35240;DHT22;21376;50.954;4.716;2023-05-23T21:04:40;11.60;99.90
35240;DHT22;21376;50.954;4.716;2023-05-23T21:07:06;11.50;99.90
35240;DHT22;21376;50.954;4.716;2023-05-23T21:09:32;11.60;99.90
35240;DHT22;21376;50.954;4.716;2023-05-23T21:11:58;11.60;99.90